Prowers, Colorado
Current Conditions -  °F | °C
As of 4:53 AM on Sunday 23 Nov 2014 (Local Time) from KLAA Reporting Station
Clear Clear  
Wind Chill: 41°   Ceiling: Unl
Heat Index: 47°   Visibility: 8mi
Dew Point: 27°   Wind: 15mph
Humidity: 46%   Direction: 10°N
Pressure: 29.55"   Gusts: 28mph
Location:  37.885°N, 102.667°W
Report Text: KLAA 231153Z AUTO 01013G24KT 8SM CLR 08/M03 A2955 RMK AO2 WSHFT 1123 SLP993 T00831028 10094 20044 53027
Loading
Personal Weather Stations






























Interactive Weather Map New forecast layout! Learn more

10-Day Weather Forecast

Advertisements
Track Severe Weather on mobile